Flight Number: EUR3058 Duration: 11:00
Departure: Paris Charles-de-Gaulle (LFPG) at 08:00 Distance: 4964 Nm
Arrival: Mexico City Int'l Airport (MMMX) at 19:00 Equipment: A340

Weather Information
Paris-Aeroport Charles De Gaulle, France (LFPG) 49-01N 002-32E 109M Nov 18, 2017 - 06:30 AM EST / 2017.11.18 1130 UTC
Wind: from the SW (230 degrees) at 6 MPH (5 KT) (direction variable):0
Visibility: 3 mile(s):0
Sky conditions: mostly cloudy Temperature: 44 F (7 C) Dew Point: 42 F (6 C) Relative Humidity: 93% Pressure (altimeter): 30.27 in. Hg (1025 hPa)
ob: LFPG 181130Z 23005KT 180V280 6000 BKN038 07/06 Q1025 TEMPO BKN003 cycle: 11
Sunrise: 07:09 Sunset: 16:01 (UTC)

Mexico City / Licenci, Mexico (MMMX) 19-26N 099-06W Nov 18, 2017 - 05:47 AM EST / 2017.11.18 1047 UTC
Wind: from the E (080 degrees) at 3 MPH (3 KT):0
Visibility: 7 mile(s):0
Sky conditions: clear Temperature: 50 F (10 C) Dew Point: 35 F (2 C) Relative Humidity: 57% Pressure (altimeter): 30.31 in. Hg (1026 hPa)
ob: MMMX 181047Z 08003KT 7SM SKC 10/02 A3031 NOSIG RMK HZY cycle: 11
Sunrise: 12:49 Sunset: 23:54 (UTC)

TAF:2017/11/18 12:27 TAF MMMX 181121Z 1812/1918 32005KT P6SM SKC TX23/1821Z TN07/1812Z FM181800 04012KT P6SM SCT250 FM190600 34005KT P6SM SKC TEMPO 1911/1915 3SM BR HZ BKN010 FM191700 02012KT P6SM SCT020 BKN080

This route has never been flown.

Route map